Time;durP1;ratioP1;P1;durP2;ratioP2;P2;SDS_P1;SDS_P2;PMS_P1;PMS_P2;Temp;Humidity;BMP_temperature;BMP_pressure;BME280_temperature;BME280_humidity;BME280_pressure;Samples;Min_cycle;Max_cycle;Signal;HPM_P1;HPM_P2
2021/07/06 00:01:51;;;;;;;8.57;4.75;;;19.00;99.90;;;;;;5015011;28;20117;-78
2021/07/06 00:04:18;;;;;;;12.15;4.43;;;19.00;99.90;;;;;;5014877;28;20136;-78
2021/07/06 00:06:45;;;;;;;7.13;4.60;;;19.10;99.90;;;;;;5016785;28;20473;-78
2021/07/06 00:09:12;;;;;;;5.68;4.00;;;19.10;99.90;;;;;;5018976;28;20449;-78
2021/07/06 00:11:39;;;;;;;7.15;4.03;;;19.20;99.90;;;;;;5017941;28;20085;-79
2021/07/06 00:14:06;;;;;;;5.85;3.95;;;19.20;99.90;;;;;;5018230;28;20105;-78
2021/07/06 00:16:33;;;;;;;5.20;3.90;;;19.20;99.90;;;;;;5017732;28;20065;-77
2021/07/06 00:19:02;;;;;;;7.07;4.13;;;19.20;99.90;;;;;;5018038;28;20077;-79
2021/07/06 00:21:29;;;;;;;10.27;3.92;;;19.10;99.90;;;;;;5017576;28;20081;-79
2021/07/06 00:23:56;;;;;;;6.68;3.95;;;19.20;99.90;;;;;;5016616;28;20129;-79
2021/07/06 00:26:22;;;;;;;9.07;4.10;;;19.10;99.90;;;;;;5018537;28;20060;-78
2021/07/06 00:28:49;;;;;;;7.75;3.78;;;19.10;99.90;;;;;;5018865;28;20136;-79
2021/07/06 00:31:16;;;;;;;5.65;3.67;;;19.10;99.90;;;;;;5018638;28;20084;-79
2021/07/06 00:33:43;;;;;;;7.20;3.60;;;19.10;99.90;;;;;;5018596;28;20136;-79
2021/07/06 00:36:11;;;;;;;6.60;3.53;;;19.10;99.90;;;;;;5019252;28;20495;-78
2021/07/06 00:38:38;;;;;;;7.40;3.90;;;19.20;99.90;;;;;;5019152;28;20084;-78
2021/07/06 00:41:05;;;;;;;7.70;3.75;;;19.20;99.90;;;;;;5019761;28;20470;-79
2021/07/06 00:43:36;;;;;;;7.97;3.70;;;19.20;99.90;;;;;;5019329;28;20455;-79
2021/07/06 00:46:03;;;;;;;14.65;4.05;;;19.20;99.90;;;;;;5018807;28;20141;-79
2021/07/06 00:48:30;;;;;;;9.68;3.67;;;19.20;99.90;;;;;;5018402;28;20088;-79
2021/07/06 00:50:57;;;;;;;7.68;3.67;;;19.20;99.90;;;;;;5018947;28;20485;-80
2021/07/06 00:53:26;;;;;;;9.60;3.60;;;19.20;99.90;;;;;;5018535;28;20088;-79
2021/07/06 00:55:55;;;;;;;6.53;3.53;;;19.20;99.90;;;;;;5018768;28;20088;-79
2021/07/06 00:58:22;;;;;;;8.57;3.47;;;19.10;99.90;;;;;;5017161;28;20137;-78
2021/07/06 01:00:49;;;;;;;7.00;3.38;;;19.10;99.90;;;;;;5016880;28;20190;-78
2021/07/06 01:03:16;;;;;;;7.10;3.58;;;19.10;99.90;;;;;;5018045;28;20089;-78
2021/07/06 01:05:43;;;;;;;7.68;3.60;;;19.10;99.90;;;;;;5019664;28;20428;-80
2021/07/06 01:08:10;;;;;;;11.43;3.70;;;19.10;99.90;;;;;;5020793;28;20097;-78
2021/07/06 01:10:39;;;;;;;5.65;3.60;;;19.10;99.90;;;;;;5020952;28;20233;-79
2021/07/06 01:13:08;;;;;;;5.90;3.60;;;19.00;99.90;;;;;;5020051;28;20127;-79
2021/07/06 01:15:35;;;;;;;13.30;3.97;;;19.00;99.90;;;;;;5020081;28;20085;-79
2021/07/06 01:18:14;;;;;;;7.55;3.92;;;19.00;99.90;;;;;;5016894;28;20102;-78
2021/07/06 01:20:45;;;;;;;7.75;4.00;;;18.90;99.90;;;;;;5015492;28;20511;-78
2021/07/06 01:23:16;;;;;;;6.30;3.95;;;18.80;99.90;;;;;;5014153;28;20137;-79
2021/07/06 01:25:43;;;;;;;10.27;4.10;;;18.70;99.90;;;;;;5014404;28;20177;-78
2021/07/06 01:28:10;;;;;;;10.07;4.00;;;18.60;99.90;;;;;;5014556;28;20050;-79
2021/07/06 01:30:38;;;;;;;7.20;4.32;;;18.60;99.90;;;;;;5014083;28;20060;-79
2021/07/06 01:33:05;;;;;;;8.70;4.05;;;18.60;99.90;;;;;;5014915;28;20117;-79
2021/07/06 01:35:32;;;;;;;5.70;4.20;;;18.60;99.90;;;;;;5017507;28;20092;-78
2021/07/06 01:38:00;;;;;;;8.15;4.88;;;18.60;99.90;;;;;;5016261;28;20125;-78
2021/07/06 01:40:30;;;;;;;7.40;4.13;;;18.70;99.90;;;;;;5016047;28;20144;-78
2021/07/06 01:42:58;;;;;;;8.50;4.18;;;18.80;99.90;;;;;;5015958;28;20160;-79
2021/07/06 01:45:26;;;;;;;10.73;5.43;;;18.80;99.90;;;;;;5018294;28;20141;-78
2021/07/06 01:47:55;;;;;;;9.52;4.60;;;18.80;99.90;;;;;;5016914;28;20137;-78
2021/07/06 01:50:25;;;;;;;10.40;4.32;;;18.80;99.90;;;;;;5017298;28;20536;-78
2021/07/06 01:52:53;;;;;;;6.70;4.75;;;18.80;99.90;;;;;;5017804;28;20050;-79
2021/07/06 01:55:22;;;;;;;9.57;4.80;;;18.80;99.90;;;;;;5019128;28;20104;-78
2021/07/06 01:57:52;;;;;;;13.15;4.50;;;18.80;99.90;;;;;;5020225;28;20053;-80
2021/07/06 02:00:22;;;;;;;15.88;4.85;;;18.80;99.90;;;;;;5020394;28;20455;-79
2021/07/06 02:02:50;;;;;;;13.13;4.70;;;18.80;99.90;;;;;;5018126;28;20073;-78
2021/07/06 02:05:28;;;;;;;12.43;4.90;;;18.80;99.90;;;;;;5018368;28;20053;-80
2021/07/06 02:07:55;;;;;;;11.55;4.95;;;18.70;99.90;;;;;;5018406;28;20533;-79
2021/07/06 02:10:23;;;;;;;9.10;4.72;;;18.60;99.90;;;;;;5018351;28;20045;-79
2021/07/06 02:12:51;;;;;;;7.88;4.43;;;18.60;99.90;;;;;;5015984;28;20084;-78
2021/07/06 02:15:18;;;;;;;16.02;5.30;;;18.60;99.90;;;;;;5013579;28;20085;-78
2021/07/06 02:17:46;;;;;;;9.82;4.68;;;18.60;99.90;;;;;;5013364;28;20049;-79
2021/07/06 02:20:17;;;;;;;10.70;4.75;;;18.60;99.90;;;;;;5013212;28;20053;-77
2021/07/06 02:22:44;;;;;;;10.32;4.55;;;18.60;99.90;;;;;;5013932;28;20118;-78
2021/07/06 02:25:13;;;;;;;6.25;4.15;;;18.70;99.90;;;;;;5016811;28;20132;-77
2021/07/06 02:27:41;;;;;;;13.25;4.45;;;18.80;99.90;;;;;;5017557;28;20042;-78
2021/07/06 02:30:11;;;;;;;15.27;4.72;;;18.80;99.90;;;;;;5016246;28;20096;-77
2021/07/06 02:32:38;;;;;;;7.40;4.13;;;18.80;99.90;;;;;;5016648;28;20133;-78
2021/07/06 02:35:06;;;;;;;19.40;5.20;;;18.80;99.90;;;;;;5012724;28;20084;-79
2021/07/06 02:37:34;;;;;;;8.60;4.18;;;18.80;99.90;;;;;;5013131;28;20137;-78
2021/07/06 02:40:02;;;;;;;10.52;4.07;;;18.70;99.90;;;;;;5023691;28;20077;-78
2021/07/06 02:42:29;;;;;;;9.38;4.35;;;18.60;99.90;;;;;;5024282;28;20541;-78
2021/07/06 02:44:56;;;;;;;9.60;3.88;;;18.60;99.90;;;;;;5023982;28;20478;-78
2021/07/06 02:47:24;;;;;;;10.05;3.92;;;18.60;99.90;;;;;;5022497;28;20588;-78
2021/07/06 02:49:51;;;;;;;5.88;3.78;;;18.60;99.90;;;;;;5024955;28;20129;-79
2021/07/06 02:52:18;;;;;;;7.05;3.90;;;18.60;99.90;;;;;;5021749;28;20133;-78
2021/07/06 02:54:44;;;;;;;9.13;3.95;;;18.60;99.90;;;;;;5020499;28;20513;-80
2021/07/06 02:57:33;;;;;;;5.40;4.00;;;18.60;99.90;;;;;;5021189;28;20133;-80
2021/07/06 03:00:00;;;;;;;8.93;4.03;;;18.60;99.90;;;;;;5021362;28;20053;-79
2021/07/06 03:02:28;;;;;;;4.50;3.60;;;18.60;99.90;;;;;;5019784;28;20430;-79
2021/07/06 03:04:55;;;;;;;7.97;3.80;;;18.60;99.90;;;;;;5015855;28;20491;-79
2021/07/06 03:07:22;;;;;;;11.32;4.53;;;18.60;99.90;;;;;;5016854;28;20078;-79
2021/07/06 03:09:48;;;;;;;7.18;3.70;;;18.60;99.90;;;;;;5017696;28;20466;-79
2021/07/06 03:12:15;;;;;;;7.28;3.90;;;18.60;99.90;;;;;;5018223;28;20473;-79
2021/07/06 03:14:42;;;;;;;7.85;3.85;;;18.60;99.90;;;;;;5018931;28;20509;-82
2021/07/06 03:17:09;;;;;;;8.07;4.03;;;18.60;99.90;;;;;;5019501;28;20463;-80
2021/07/06 03:19:37;;;;;;;8.02;4.40;;;18.60;99.90;;;;;;5018430;28;20514;-79
2021/07/06 03:22:04;;;;;;;10.48;4.50;;;18.70;99.90;;;;;;5018408;28;20085;-78
2021/07/06 03:24:31;;;;;;;5.13;3.65;;;18.70;99.90;;;;;;5019366;28;20081;-80
2021/07/06 03:26:58;;;;;;;7.72;4.00;;;18.60;99.90;;;;;;5018335;28;20105;-78
2021/07/06 03:29:25;;;;;;;7.90;4.03;;;18.60;99.90;;;;;;5016124;28;20053;-79
2021/07/06 03:31:52;;;;;;;11.95;4.50;;;18.60;99.90;;;;;;5015625;28;20093;-78
2021/07/06 03:34:21;;;;;;;6.80;3.80;;;18.60;99.90;;;;;;5014502;28;20081;-78
2021/07/06 03:36:49;;;;;;;13.55;4.30;;;18.60;99.90;;;;;;5014820;28;20057;-78
2021/07/06 03:39:16;;;;;;;7.55;4.20;;;18.70;99.90;;;;;;5014496;28;20060;-78
2021/07/06 03:41:43;;;;;;;5.40;3.72;;;18.60;99.90;;;;;;5014392;28;20060;-79
2021/07/06 03:44:10;;;;;;;8.23;4.38;;;18.60;99.90;;;;;;5014239;28;20054;-79
2021/07/06 03:46:37;;;;;;;10.95;4.25;;;18.60;99.90;;;;;;5015974;28;20049;-78
2021/07/06 03:49:05;;;;;;;13.52;4.68;;;18.60;99.90;;;;;;5024229;28;20061;-80
2021/07/06 03:51:33;;;;;;;7.90;4.05;;;18.60;99.90;;;;;;5022988;28;20128;-80
2021/07/06 03:54:01;;;;;;;12.75;4.22;;;18.60;99.90;;;;;;5019541;28;20125;-78
2021/07/06 03:56:28;;;;;;;6.07;4.20;;;18.50;99.90;;;;;;5013655;28;20144;-77
2021/07/06 04:01:36;;;;;;;9.55;4.47;;;18.60;99.90;;;;;;5004596;28;20056;-77
2021/07/06 04:04:07;;;;;;;13.07;4.45;;;18.60;99.90;;;;;;5032231;28;20095;-78
2021/07/06 04:06:34;;;;;;;9.98;4.38;;;18.60;99.90;;;;;;5032109;28;20050;-79
2021/07/06 04:09:03;;;;;;;6.97;4.25;;;18.60;99.90;;;;;;5032003;28;20127;-78
2021/07/06 04:11:30;;;;;;;8.57;4.90;;;18.50;99.90;;;;;;5032037;28;20145;-77
2021/07/06 04:13:57;;;;;;;8.25;4.68;;;18.40;99.90;;;;;;5031439;28;20525;-79
2021/07/06 04:16:23;;;;;;;8.52;4.72;;;18.40;99.90;;;;;;5031559;28;20524;-78
2021/07/06 04:18:50;;;;;;;11.13;5.28;;;18.40;99.90;;;;;;5031513;28;20048;-77
2021/07/06 04:21:18;;;;;;;6.78;4.78;;;18.40;99.90;;;;;;5032368;28;20140;-79
2021/07/06 04:23:44;;;;;;;10.32;5.03;;;18.40;99.90;;;;;;5031314;28;20136;-78
2021/07/06 04:26:13;;;;;;;7.65;4.50;;;18.40;99.90;;;;;;5031816;28;20045;-78
2021/07/06 04:28:40;;;;;;;6.90;4.53;;;18.40;99.90;;;;;;5031337;28;20045;-79
2021/07/06 04:31:06;;;;;;;7.63;5.20;;;18.40;99.90;;;;;;5031375;28;20475;-78
2021/07/06 04:33:34;;;;;;;7.85;4.90;;;18.40;99.90;;;;;;5031442;28;20124;-78
2021/07/06 04:36:00;;;;;;;13.90;5.13;;;18.40;99.90;;;;;;5031416;28;20053;-78
2021/07/06 04:38:27;;;;;;;8.20;4.82;;;18.40;99.90;;;;;;5031347;28;20060;-78
2021/07/06 04:40:55;;;;;;;9.05;4.85;;;18.50;99.90;;;;;;5031535;28;20093;-77
2021/07/06 04:43:23;;;;;;;5.95;4.32;;;18.50;99.90;;;;;;5031275;28;20149;-76
2021/07/06 04:45:50;;;;;;;8.43;4.30;;;18.50;99.90;;;;;;5031313;28;20144;-81
2021/07/06 04:48:17;;;;;;;7.63;4.18;;;18.50;99.90;;;;;;5031486;28;20041;-79
2021/07/06 04:50:44;;;;;;;5.65;4.03;;;18.50;99.90;;;;;;5031283;28;20056;-78
2021/07/06 04:53:11;;;;;;;6.57;4.10;;;18.50;99.90;;;;;;5031442;28;20145;-77
2021/07/06 04:55:39;;;;;;;7.38;4.53;;;18.60;99.90;;;;;;5031469;28;20049;-78
2021/07/06 04:58:06;;;;;;;6.88;4.70;;;18.50;99.90;;;;;;5031145;28;20081;-78
2021/07/06 05:00:34;;;;;;;7.47;4.35;;;18.50;99.90;;;;;;5030058;28;20482;-78
2021/07/06 05:03:01;;;;;;;7.90;4.90;;;18.50;99.90;;;;;;5030772;28;20545;-78
2021/07/06 05:05:28;;;;;;;8.63;4.47;;;18.50;99.90;;;;;;5030811;28;20076;-78
2021/07/06 05:07:56;;;;;;;11.77;5.40;;;18.50;99.90;;;;;;5031211;28;20450;-78
2021/07/06 05:10:23;;;;;;;9.45;5.07;;;18.50;99.90;;;;;;5031817;28;20049;-76
2021/07/06 05:12:50;;;;;;;8.05;4.97;;;18.50;99.90;;;;;;5030867;28;20076;-77
2021/07/06 05:15:17;;;;;;;8.13;4.88;;;18.50;99.90;;;;;;5030553;28;20069;-75
2021/07/06 05:17:45;;;;;;;7.03;4.50;;;18.50;99.90;;;;;;5030602;28;20519;-78
2021/07/06 05:20:13;;;;;;;10.18;4.88;;;18.50;99.90;;;;;;5032204;28;20414;-77
2021/07/06 05:22:40;;;;;;;11.82;4.97;;;18.60;99.90;;;;;;5032167;28;20136;-78
2021/07/06 05:25:08;;;;;;;7.85;4.45;;;18.50;99.90;;;;;;5030531;28;20227;-77
2021/07/06 05:27:35;;;;;;;6.40;5.05;;;18.50;99.90;;;;;;5030943;28;20053;-77
2021/07/06 05:30:02;;;;;;;11.27;5.00;;;18.50;99.90;;;;;;5030518;28;20417;-78
2021/07/06 05:32:29;;;;;;;6.07;4.90;;;18.50;99.90;;;;;;5030580;28;20143;-77
2021/07/06 05:34:57;;;;;;;9.10;4.68;;;18.50;99.90;;;;;;5030429;28;20151;-77
2021/07/06 05:37:24;;;;;;;6.68;4.90;;;18.50;99.90;;;;;;5030497;28;20540;-78
2021/07/06 05:39:51;;;;;;;9.73;5.28;;;18.50;99.90;;;;;;5030741;28;20054;-78
2021/07/06 05:42:18;;;;;;;6.60;4.70;;;18.60;99.90;;;;;;5030602;28;20063;-78
2021/07/06 05:44:45;;;;;;;12.68;5.10;;;18.50;99.90;;;;;;5031623;28;20655;-78
2021/07/06 05:47:12;;;;;;;11.00;5.35;;;18.60;99.90;;;;;;5022286;28;20053;-78
2021/07/06 05:49:39;;;;;;;11.00;6.07;;;18.60;99.90;;;;;;5009224;28;20144;-78
2021/07/06 05:52:07;;;;;;;8.75;5.13;;;18.60;99.90;;;;;;5008516;28;20115;-79
2021/07/06 05:54:34;;;;;;;14.10;5.65;;;18.50;99.90;;;;;;5010379;28;20045;-78
2021/07/06 05:57:01;;;;;;;9.50;5.78;;;18.50;99.90;;;;;;5009692;28;20160;-78
2021/07/06 05:59:28;;;;;;;12.02;6.00;;;18.60;99.90;;;;;;5010342;28;20543;-79
2021/07/06 06:01:55;;;;;;;8.55;5.40;;;18.50;99.90;;;;;;5011069;28;20466;-79
2021/07/06 06:04:22;;;;;;;11.48;6.10;;;18.50;99.90;;;;;;5010876;28;20046;-78
2021/07/06 06:06:48;;;;;;;10.65;5.88;;;18.50;99.90;;;;;;5010900;28;20092;-78
2021/07/06 06:09:17;;;;;;;9.98;6.15;;;18.40;99.90;;;;;;5010956;28;20042;-77
2021/07/06 06:11:44;;;;;;;9.52;6.20;;;18.40;99.90;;;;;;5011329;28;20120;-78
2021/07/06 06:14:10;;;;;;;9.05;5.55;;;18.50;99.90;;;;;;5014486;28;20050;-77
2021/07/06 06:16:37;;;;;;;8.65;6.13;;;18.50;99.90;;;;;;5015033;28;20141;-78
2021/07/06 06:19:05;;;;;;;10.77;5.90;;;18.50;99.90;;;;;;5014389;28;20050;-77
2021/07/06 06:21:33;;;;;;;12.32;6.38;;;18.50;99.90;;;;;;5014612;28;20053;-77
2021/07/06 06:24:01;;;;;;;9.15;5.43;;;18.50;99.90;;;;;;5014436;28;20050;-78
2021/07/06 06:26:29;;;;;;;9.68;5.80;;;18.50;99.90;;;;;;5014401;28;20057;-78
2021/07/06 06:28:56;;;;;;;11.40;5.60;;;18.50;99.90;;;;;;5014123;28;20133;-78
2021/07/06 06:31:22;;;;;;;11.65;6.10;;;18.50;99.90;;;;;;5014309;28;20358;-78
2021/07/06 06:33:49;;;;;;;10.05;6.30;;;18.40;99.90;;;;;;5014306;28;20542;-78
2021/07/06 06:36:16;;;;;;;10.73;6.35;;;18.40;99.90;;;;;;5014345;28;20140;-77
2021/07/06 06:38:43;;;;;;;11.68;6.40;;;18.40;99.90;;;;;;5013826;28;20129;-77
2021/07/06 06:41:10;;;;;;;10.10;6.22;;;18.40;99.90;;;;;;5011530;28;20122;-78
2021/07/06 06:43:38;;;;;;;10.48;6.50;;;18.30;99.90;;;;;;5013596;28;20046;-79
2021/07/06 06:46:05;;;;;;;9.90;6.15;;;18.30;99.90;;;;;;5025054;28;20053;-77
2021/07/06 06:48:32;;;;;;;8.63;5.57;;;18.30;99.90;;;;;;5014043;28;20130;-77
2021/07/06 06:50:59;;;;;;;13.73;6.05;;;18.20;99.90;;;;;;5014063;28;20556;-77
2021/07/06 06:53:26;;;;;;;8.23;6.50;;;18.20;99.90;;;;;;5013478;28;20046;-79
2021/07/06 06:55:53;;;;;;;9.88;6.20;;;18.20;99.90;;;;;;5013916;28;20056;-78
2021/07/06 06:58:20;;;;;;;7.10;5.47;;;18.20;99.90;;;;;;5014435;28;20149;-81
2021/07/06 07:00:48;;;;;;;10.48;5.80;;;18.20;99.90;;;;;;5015906;28;20140;-78
2021/07/06 07:03:15;;;;;;;11.98;6.57;;;18.20;99.90;;;;;;5012172;28;20042;-78
2021/07/06 07:05:42;;;;;;;9.52;6.70;;;18.20;99.90;;;;;;5015001;28;20510;-78
2021/07/06 07:08:09;;;;;;;10.18;6.47;;;18.10;99.90;;;;;;5015289;28;20056;-79
2021/07/06 07:10:37;;;;;;;10.35;6.40;;;18.10;99.90;;;;;;5010139;28;20132;-81
2021/07/06 07:13:07;;;;;;;8.07;6.00;;;18.10;99.90;;;;;;5010741;28;20054;-78
2021/07/06 07:15:35;;;;;;;7.82;6.13;;;18.10;99.90;;;;;;5007668;28;20064;-80
2021/07/06 07:18:03;;;;;;;7.70;5.75;;;18.10;99.90;;;;;;5008261;28;20145;-78
2021/07/06 07:20:30;;;;;;;8.32;5.57;;;18.10;99.90;;;;;;5005837;28;20069;-79
2021/07/06 07:22:57;;;;;;;6.88;5.55;;;18.20;99.90;;;;;;5015459;28;20533;-82
2021/07/06 07:25:25;;;;;;;10.55;6.30;;;18.20;99.90;;;;;;5011324;28;20574;-80
2021/07/06 07:27:52;;;;;;;6.65;5.20;;;18.20;99.90;;;;;;5009794;28;20480;-80
2021/07/06 07:30:21;;;;;;;11.73;5.43;;;18.30;99.90;;;;;;5014723;28;20466;-79
2021/07/06 07:32:49;;;;;;;7.05;5.30;;;18.30;99.90;;;;;;5015028;28;20128;-79
2021/07/06 07:35:21;;;;;;;7.00;5.30;;;18.30;99.90;;;;;;5011793;28;20077;-79
2021/07/06 07:37:51;;;;;;;7.47;5.40;;;18.30;99.90;;;;;;5004392;28;20449;-80
2021/07/06 07:40:19;;;;;;;8.05;5.55;;;18.40;99.90;;;;;;4998270;28;20464;-84
2021/07/06 07:42:48;;;;;;;6.32;4.95;;;18.40;99.90;;;;;;5015208;28;20105;-79
2021/07/06 07:45:15;;;;;;;10.13;6.25;;;18.50;99.90;;;;;;5021786;28;20049;-80
2021/07/06 07:47:45;;;;;;;9.30;5.15;;;18.50;99.90;;;;;;5024898;28;20136;-79
2021/07/06 07:50:16;;;;;;;8.32;5.03;;;18.60;99.90;;;;;;5023393;28;20073;-80
2021/07/06 07:52:45;;;;;;;7.45;4.68;;;18.70;99.90;;;;;;5007307;28;20045;-79
2021/07/06 07:55:12;;;;;;;6.78;4.93;;;18.70;99.90;;;;;;5007403;28;20045;-79
2021/07/06 07:57:39;;;;;;;6.10;4.80;;;18.70;99.90;;;;;;5009528;28;20165;-79
2021/07/06 08:00:07;;;;;;;6.57;4.95;;;18.70;99.90;;;;;;5007216;28;20136;-81
2021/07/06 08:02:34;;;;;;;6.22;5.10;;;18.80;99.90;;;;;;5007880;28;20046;-79
2021/07/06 08:05:01;;;;;;;6.97;5.60;;;18.90;99.90;;;;;;5010280;28;20079;-79
2021/07/06 08:07:32;;;;;;;10.25;5.30;;;18.90;99.90;;;;;;5011221;28;20352;-79
2021/07/06 08:09:59;;;;;;;9.38;5.18;;;19.00;99.90;;;;;;5008687;28;20774;-79
2021/07/06 08:12:28;;;;;;;5.78;4.78;;;19.10;99.90;;;;;;5010605;28;20133;-79
2021/07/06 08:14:55;;;;;;;5.32;4.40;;;19.10;99.90;;;;;;5003161;28;20141;-79
2021/07/06 08:17:22;;;;;;;7.63;4.63;;;19.20;99.90;;;;;;5007744;28;20546;-79
2021/07/06 08:19:49;;;;;;;7.60;5.18;;;19.30;99.90;;;;;;5010010;28;20316;-77
2021/07/06 08:22:19;;;;;;;6.88;4.35;;;19.40;99.90;;;;;;5015791;28;20128;-79
2021/07/06 08:24:52;;;;;;;6.55;5.18;;;19.40;99.90;;;;;;5026210;28;20103;-78
2021/07/06 08:27:21;;;;;;;6.20;5.00;;;19.40;99.90;;;;;;5019929;28;20501;-79
2021/07/06 08:29:48;;;;;;;7.82;4.72;;;19.50;99.90;;;;;;5018668;28;20180;-79
2021/07/06 08:32:15;;;;;;;5.35;4.85;;;19.60;99.90;;;;;;5011712;28;20069;-79
2021/07/06 08:34:42;;;;;;;8.60;5.30;;;19.70;99.90;;;;;;5011463;28;20138;-81
2021/07/06 08:37:11;;;;;;;6.30;4.80;;;19.70;99.90;;;;;;5011719;28;20054;-78
2021/07/06 08:39:38;;;;;;;7.57;5.07;;;19.70;99.90;;;;;;5012179;28;20138;-78
2021/07/06 08:42:08;;;;;;;10.55;4.68;;;19.70;99.90;;;;;;5012027;28;20134;-78
2021/07/06 08:44:36;;;;;;;6.45;4.90;;;19.80;99.90;;;;;;5011801;28;20490;-78
2021/07/06 08:47:05;;;;;;;7.63;4.80;;;19.80;99.90;;;;;;5011801;28;20140;-78
2021/07/06 08:49:34;;;;;;;8.80;4.55;;;19.80;99.90;;;;;;5011605;28;20077;-80
2021/07/06 08:52:03;;;;;;;7.55;4.80;;;19.80;99.90;;;;;;5011671;28;20081;-78
2021/07/06 08:54:30;;;;;;;6.00;4.85;;;19.80;99.90;;;;;;5011473;28;20133;-78
2021/07/06 08:56:57;;;;;;;8.13;5.10;;;19.80;99.90;;;;;;5012003;28;20053;-78
2021/07/06 08:59:25;;;;;;;8.25;5.03;;;19.80;99.90;;;;;;5011205;28;20050;-78
2021/07/06 09:01:52;;;;;;;8.70;4.85;;;19.80;99.90;;;;;;5011667;28;20144;-78
2021/07/06 09:04:19;;;;;;;7.65;4.90;;;19.90;99.90;;;;;;5011754;28;20371;-78
2021/07/06 09:06:56;;;;;;;6.43;5.07;;;19.80;99.90;;;;;;5011462;28;20092;-78
2021/07/06 09:09:24;;;;;;;7.07;5.30;;;19.90;99.90;;;;;;5011366;28;20125;-78
2021/07/06 09:11:53;;;;;;;7.10;5.00;;;19.90;99.90;;;;;;5011563;28;20136;-77
2021/07/06 09:14:20;;;;;;;9.63;5.03;;;20.00;99.90;;;;;;5011469;28;20217;-77
2021/07/06 09:16:50;;;;;;;6.22;4.70;;;20.00;99.90;;;;;;5011576;28;20136;-79
2021/07/06 09:19:21;;;;;;;7.80;4.97;;;20.00;99.90;;;;;;5011210;28;20081;-78
2021/07/06 09:21:48;;;;;;;8.02;4.82;;;20.10;99.90;;;;;;5011420;28;20390;-77
2021/07/06 09:24:26;;;;;;;6.15;4.97;;;20.20;99.90;;;;;;5011583;28;20425;-77
2021/07/06 09:26:53;;;;;;;10.20;4.82;;;20.30;99.90;;;;;;5011454;28;20581;-77
2021/07/06 09:29:24;;;;;;;7.50;4.85;;;20.30;99.90;;;;;;5010994;28;20088;-78
2021/07/06 09:31:53;;;;;;;6.32;4.40;;;20.50;99.90;;;;;;5011341;28;20112;-77
2021/07/06 09:34:20;;;;;;;6.97;4.88;;;20.60;99.90;;;;;;5011459;28;20149;-77
2021/07/06 09:36:49;;;;;;;7.35;4.85;;;20.70;99.90;;;;;;5011397;28;20054;-79
2021/07/06 09:39:20;;;;;;;7.95;4.70;;;20.90;99.90;;;;;;5011253;28;20056;-77
2021/07/06 09:41:59;;;;;;;12.07;4.57;;;21.00;99.90;;;;;;5011224;28;20151;-78
2021/07/06 09:44:28;;;;;;;10.05;4.70;;;21.10;99.90;;;;;;5010887;28;20140;-79
2021/07/06 09:47:00;;;;;;;6.00;3.70;;;21.30;99.90;;;;;;5013060;28;20136;-79
2021/07/06 09:49:29;;;;;;;6.30;3.53;;;21.30;99.90;;;;;;5017995;28;20518;-79
2021/07/06 09:51:57;;;;;;;4.97;3.10;;;21.40;99.90;;;;;;5018292;28;20103;-78
2021/07/06 09:54:28;;;;;;;8.82;3.08;;;21.40;99.90;;;;;;5017574;28;20050;-78
2021/07/06 09:57:04;;;;;;;5.75;3.17;;;21.50;99.90;;;;;;5017995;28;20065;-77
2021/07/06 09:59:31;;;;;;;8.52;3.35;;;21.60;99.90;;;;;;5035788;23;20110;-76
2021/07/06 10:02:03;;;;;;;3.25;2.80;;;21.60;99.90;;;;;;5010301;28;20124;-79
2021/07/06 10:04:30;;;;;;;2.87;2.60;;;21.50;99.90;;;;;;5018442;28;20054;-78
2021/07/06 10:07:00;;;;;;;4.22;2.58;;;21.50;99.90;;;;;;5018234;28;20570;-78
2021/07/06 10:09:27;;;;;;;15.27;3.30;;;21.50;99.90;;;;;;5018324;28;20120;-78
2021/07/06 10:11:54;;;;;;;2.33;1.80;;;21.50;99.90;;;;;;5018864;28;20049;-77
2021/07/06 10:14:21;;;;;;;2.13;1.92;;;21.50;99.90;;;;;;5018137;28;20049;-78
2021/07/06 10:16:48;;;;;;;3.92;1.67;;;21.50;99.90;;;;;;5018475;28;20170;-76
2021/07/06 10:19:17;;;;;;;4.45;2.08;;;21.50;99.90;;;;;;5018050;28;20050;-76
2021/07/06 10:21:43;;;;;;;13.45;3.10;;;21.60;99.90;;;;;;5018349;28;20112;-79
2021/07/06 10:24:14;;;;;;;24.77;6.30;;;21.80;99.90;;;;;;5018225;28;20132;-77
2021/07/06 10:26:42;;;;;;;4.13;1.95;;;22.10;99.90;;;;;;5019099;28;20081;-77
2021/07/06 10:29:09;;;;;;;2.50;2.00;;;22.40;99.90;;;;;;5019104;28;20096;-77
2021/07/06 10:31:43;;;;;;;2.35;1.50;;;22.60;99.90;;;;;;5019124;28;20132;-78
2021/07/06 10:34:26;;;;;;;1.73;1.63;;;22.90;99.90;;;;;;4992010;28;20081;-78
2021/07/06 10:36:53;;;;;;;3.13;2.20;;;23.10;99.90;;;;;;4987340;28;20057;-78
2021/07/06 10:39:44;;;;;;;3.95;1.63;;;23.20;99.90;;;;;;4988854;28;20074;-77
2021/07/06 10:42:11;;;;;;;2.63;1.45;;;23.30;99.90;;;;;;4988489;28;20100;-77
2021/07/06 10:44:41;;;;;;;3.60;1.77;;;23.30;99.90;;;;;;4987098;28;20089;-76
2021/07/06 10:47:36;;;;;;;2.67;1.58;;;23.30;99.90;;;;;;4989376;28;20058;-77
2021/07/06 10:59:00;;;;;;;2.65;1.58;;;23.50;99.90;;;;;;4952659;28;20166;-79
2021/07/06 11:02:01;;;;;;;2.28;1.70;;;23.60;99.90;;;;;;4983909;28;20121;-77
2021/07/06 11:05:18;;;;;;;4.03;1.60;;;23.80;99.90;;;;;;4984359;28;20051;-78
2021/07/06 11:08:08;;;;;;;3.20;1.95;;;23.90;99.90;;;;;;4982055;28;20451;-78
2021/07/06 11:10:46;;;;;;;2.50;1.80;;;23.90;99.90;;;;;;4985346;28;20104;-79
2021/07/06 11:13:22;;;;;;;1.65;1.23;;;23.90;99.90;;;;;;4982044;28;20055;-78
2021/07/06 11:16:08;;;;;;;5.15;1.60;;;24.00;99.90;;;;;;4984582;28;20051;-79
2021/07/06 11:18:57;;;;;;;2.25;1.58;;;24.10;99.90;;;;;;4987038;28;20090;-80
2021/07/06 11:21:57;;;;;;;3.85;1.77;;;24.30;99.90;;;;;;4989220;28;20046;-80
2021/07/06 11:25:04;;;;;;;;;;;;;;;;;;;;;
2021/07/06 11:28:01;;;;;;;1.98;1.65;;;24.60;99.90;;;;;;4931385;29;20150;-80
2021/07/06 11:31:05;;;;;;;1.95;1.55;;;24.80;99.90;;;;;;4989333;28;20426;-79
2021/07/06 11:37:06;;;;;;;1.33;1.23;;;24.80;99.90;;;;;;4989851;28;20047;-81
2021/07/06 11:49:45;;;;;;;2.40;1.73;;;24.80;99.90;;;;;;4955146;28;20130;-78
2021/07/06 11:59:07;;;;;;;;;;;25.10;99.90;;;;;;4907520;28;20038;-79
2021/07/06 12:06:38;;;;;;;;;;;;;;;;;;;;;
2021/07/06 12:10:00;;;;;;;3.85;2.00;;;25.10;99.90;;;;;;4927395;29;20056;-78
2021/07/06 12:51:21;;;;;;;4.55;2.72;;;25.50;99.90;;;;;;4846969;29;20041;-78
2021/07/06 12:54:25;;;;;;;;;;;;;;;;;;;;;
2021/07/06 12:57:04;;;;;;;4.35;1.50;;;25.40;99.90;;;;;;4892655;29;20060;-80
2021/07/06 12:59:43;;;;;;;8.57;2.67;;;25.60;99.90;;;;;;4905950;29;20067;-80
2021/07/06 13:03:01;;;;;;;7.97;2.40;;;25.50;99.90;;;;;;4977130;28;20554;-79
2021/07/06 13:12:27;;;;;;;4.03;1.90;;;25.50;99.90;;;;;;4915067;29;20087;-79
2021/07/06 13:17:55;;;;;;;3.70;2.42;;;25.30;99.90;;;;;;4914222;29;20066;-77
2021/07/06 13:20:26;;;;;;;6.15;1.90;;;25.40;99.90;;;;;;4914359;29;20048;-78
2021/07/06 13:22:57;;;;;;;5.93;1.73;;;25.20;99.90;;;;;;4912603;29;20103;-79
2021/07/06 13:25:26;;;;;;;9.93;1.92;;;25.10;99.90;;;;;;4915766;29;20083;-78
2021/07/06 13:27:58;;;;;;;3.72;1.50;;;25.10;99.90;;;;;;4971480;28;20082;-79
2021/07/06 13:30:26;;;;;;;;;;;25.30;99.90;;;;;;4978398;28;20050;-79
2021/07/06 13:32:53;;;;;;;3.35;1.88;;;25.30;99.90;;;;;;4974076;28;20264;-78
2021/07/06 13:35:20;;;;;;;3.38;2.25;;;25.40;99.90;;;;;;4973849;28;20129;-79
2021/07/06 13:37:49;;;;;;;4.65;1.88;;;25.40;99.90;;;;;;4982607;28;20184;-80
2021/07/06 13:40:18;;;;;;;6.03;2.40;;;25.40;99.90;;;;;;4982738;28;20078;-81
2021/07/06 13:42:47;;;;;;;6.70;1.70;;;25.40;99.90;;;;;;4975743;28;20142;-80
2021/07/06 13:45:17;;;;;;;3.25;2.20;;;25.30;99.90;;;;;;4975426;28;20051;-79
2021/07/06 13:47:45;;;;;;;2.35;1.73;;;25.30;99.90;;;;;;4976131;28;20122;-81
2021/07/06 13:50:15;;;;;;;3.50;2.00;;;25.30;99.90;;;;;;4994821;28;20121;-79
2021/07/06 13:52:42;;;;;;;5.70;2.05;;;25.60;99.90;;;;;;4997139;28;20054;-80
2021/07/06 13:55:16;;;;;;;2.85;2.10;;;25.50;99.90;;;;;;4987915;28;20074;-80
2021/07/06 13:57:46;;;;;;;7.45;1.80;;;25.40;99.90;;;;;;4976417;28;20043;-80
2021/07/06 14:00:16;;;;;;;4.10;2.00;;;25.50;99.90;;;;;;4978805;28;20043;-82
2021/07/06 14:02:43;;;;;;;4.30;1.98;;;25.70;99.90;;;;;;4975390;28;20079;-81
2021/07/06 14:05:13;;;;;;;5.10;2.22;;;25.90;99.90;;;;;;4975269;28;20516;-79
2021/07/06 14:07:40;;;;;;;4.80;2.30;;;26.00;99.90;;;;;;4978200;28;20049;-79
2021/07/06 14:10:08;;;;;;;6.38;1.92;;;26.00;99.90;;;;;;4995026;28;20125;-81
2021/07/06 14:12:36;;;;;;;7.75;2.10;;;25.90;99.90;;;;;;4976069;28;20065;-78
2021/07/06 14:15:06;;;;;;;5.07;1.95;;;25.80;99.90;;;;;;4976905;28;20097;-79
2021/07/06 14:17:36;;;;;;;6.78;2.10;;;25.90;99.90;;;;;;4975507;28;20550;-78
2021/07/06 14:21:10;;;;;;;4.03;1.90;;;25.90;99.90;;;;;;5050933;23;20102;-77
2021/07/06 14:27:20;;;;;;;4.72;2.30;;;26.10;99.90;;;;;;5010288;28;20044;-80
2021/07/06 14:41:07;;;;;;;4.78;2.38;;;25.50;99.90;;;;;;4838607;29;20071;-80
2021/07/06 14:47:04;;;;;;;4.00;2.20;;;25.40;99.90;;;;;;5007997;28;20042;-78
2021/07/06 14:50:25;;;;;;;;;;;;;;;;;;;;;